createdAt,value
2022-09-28T00:01:23.778Z,16.89
2022-09-28T00:03:59.970Z,16.88
2022-09-28T00:06:30.516Z,16.90
2022-09-28T00:08:58.783Z,16.82
2022-09-28T00:11:28.262Z,16.79
2022-09-28T00:14:03.673Z,16.72
2022-09-28T00:16:36.281Z,16.56
2022-09-28T00:19:05.283Z,16.25
2022-09-28T00:21:37.239Z,16.06
2022-09-28T00:24:14.955Z,15.86
2022-09-28T00:26:49.576Z,15.70
2022-09-28T00:29:22.932Z,15.60
2022-09-28T00:32:10.087Z,15.60
2022-09-28T00:34:45.984Z,15.69
2022-09-28T00:37:15.643Z,15.71
2022-09-28T00:39:44.031Z,15.76
2022-09-28T00:42:42.860Z,15.82
2022-09-28T00:45:11.231Z,15.80
2022-09-28T00:47:50.931Z,15.69
2022-09-28T00:50:37.078Z,15.67
2022-09-28T00:53:21.563Z,15.66
2022-09-28T00:55:54.971Z,15.67
2022-09-28T00:58:34.279Z,15.70
2022-09-28T01:01:02.414Z,15.69
2022-09-28T01:03:30.345Z,15.69
2022-09-28T01:06:02.349Z,15.71
2022-09-28T01:08:33.182Z,15.75
2022-09-28T01:11:01.429Z,15.73
2022-09-28T01:13:31.585Z,15.72
2022-09-28T01:16:28.758Z,15.71
2022-09-28T01:19:38.024Z,15.71
2022-09-28T01:22:21.118Z,15.75
2022-09-28T01:25:06.858Z,15.75
2022-09-28T01:27:49.381Z,15.76
2022-09-28T01:30:21.293Z,15.77
2022-09-28T01:33:08.578Z,15.77
2022-09-28T01:36:05.943Z,15.77
2022-09-28T01:38:49.530Z,15.75
2022-09-28T01:41:19.180Z,15.75
2022-09-28T01:43:54.801Z,15.74
2022-09-28T01:46:28.170Z,15.73
2022-09-28T01:48:58.879Z,15.73
2022-09-28T01:51:55.578Z,15.62
2022-09-28T01:54:34.928Z,15.60
2022-09-28T01:58:01.942Z,15.51
2022-09-28T02:00:30.595Z,15.45
2022-09-28T02:03:14.278Z,15.44
2022-09-28T02:06:08.687Z,15.45
2022-09-28T02:08:50.969Z,15.46
2022-09-28T02:11:22.426Z,15.47
2022-09-28T02:14:07.410Z,15.50
2022-09-28T02:16:48.682Z,15.51
2022-09-28T02:19:22.054Z,15.56
2022-09-28T02:22:28.203Z,15.58
2022-09-28T02:25:09.434Z,15.61
2022-09-28T02:27:56.336Z,15.63
2022-09-28T02:30:24.309Z,15.63
2022-09-28T02:32:57.156Z,15.63
2022-09-28T02:35:24.773Z,15.64
2022-09-28T02:37:54.897Z,15.64
2022-09-28T02:40:35.099Z,15.65
2022-09-28T02:43:26.930Z,15.63
2022-09-28T02:46:28.778Z,15.63
2022-09-28T02:49:33.668Z,15.64
2022-09-28T02:52:30.667Z,15.61
2022-09-28T02:55:19.521Z,15.53
2022-09-28T02:58:15.129Z,15.50
2022-09-28T03:01:18.285Z,15.47
2022-09-28T03:03:55.576Z,15.45
2022-09-28T03:06:44.427Z,15.41
2022-09-28T03:09:18.086Z,15.35
2022-09-28T03:12:18.231Z,15.36
2022-09-28T03:14:46.374Z,15.33
2022-09-28T03:17:14.491Z,15.32
2022-09-28T03:19:42.054Z,15.33
2022-09-28T03:22:10.953Z,15.33
2022-09-28T03:24:39.394Z,15.34
2022-09-28T03:27:08.352Z,15.37
2022-09-28T03:29:36.011Z,15.39
2022-09-28T03:32:06.758Z,15.41
2022-09-28T03:34:35.636Z,15.41
2022-09-28T03:37:03.262Z,15.43
2022-09-28T03:39:31.178Z,15.39
2022-09-28T03:42:01.366Z,15.39
2022-09-28T03:44:30.508Z,15.38
2022-09-28T03:46:58.288Z,15.43
2022-09-28T03:49:25.967Z,15.44
2022-09-28T03:51:53.415Z,15.47
2022-09-28T03:54:21.232Z,15.49
2022-09-28T03:56:48.762Z,15.51
2022-09-28T03:59:18.102Z,15.50
2022-09-28T04:01:48.588Z,15.50
2022-09-28T04:04:16.378Z,15.50
2022-09-28T04:06:44.173Z,15.51
2022-09-28T04:09:12.349Z,15.52
2022-09-28T04:12:02.325Z,15.52
2022-09-28T04:14:27.808Z,15.50
2022-09-28T04:16:55.712Z,15.47
2022-09-28T04:19:25.528Z,15.42
2022-09-28T04:22:19.576Z,15.30
2022-09-28T04:24:47.093Z,15.20
2022-09-28T04:27:33.278Z,15.18
2022-09-28T04:30:03.770Z,15.14
2022-09-28T04:32:33.732Z,15.14
2022-09-28T04:35:01.435Z,15.16
2022-09-28T04:37:31.275Z,15.18
2022-09-28T04:39:59.311Z,15.20
2022-09-28T04:42:27.250Z,15.20
2022-09-28T04:44:57.669Z,15.22
2022-09-28T04:47:25.664Z,15.18
2022-09-28T04:50:19.520Z,15.17
2022-09-28T04:53:05.574Z,15.16
2022-09-28T04:55:33.471Z,15.16
2022-09-28T04:58:04.265Z,15.18
2022-09-28T05:00:35.360Z,15.18
2022-09-28T05:03:13.319Z,15.19
2022-09-28T05:06:13.866Z,15.17
2022-09-28T05:08:46.907Z,15.20
2022-09-28T05:11:16.502Z,15.21
2022-09-28T05:13:45.951Z,15.23
2022-09-28T05:16:16.923Z,15.23
2022-09-28T05:19:16.914Z,15.26
2022-09-28T05:21:46.855Z,15.31
2022-09-28T05:24:15.017Z,15.34
2022-09-28T05:26:46.500Z,15.40
2022-09-28T05:29:15.103Z,15.41
2022-09-28T05:32:01.973Z,15.43
2022-09-28T05:34:32.117Z,15.45
2022-09-28T05:36:59.636Z,15.48
2022-09-28T05:39:27.479Z,15.51
2022-09-28T05:41:57.879Z,15.54
2022-09-28T05:44:25.955Z,15.59
2022-09-28T05:46:55.473Z,15.64
2022-09-28T05:49:23.836Z,15.70
2022-09-28T05:51:51.277Z,15.74
2022-09-28T05:54:19.238Z,15.78
2022-09-28T05:56:47.695Z,15.80
2022-09-28T05:59:16.673Z,15.82
2022-09-28T06:01:44.921Z,15.84
2022-09-28T06:04:12.942Z,15.81
2022-09-28T06:06:43.213Z,15.82
2022-09-28T06:09:11.264Z,15.84
2022-09-28T06:11:38.749Z,15.87
2022-09-28T06:14:13.950Z,15.87
2022-09-28T06:16:43.917Z,15.91
2022-09-28T06:19:13.004Z,15.97
2022-09-28T06:22:15.989Z,16.02
2022-09-28T06:24:49.999Z,16.01
2022-09-28T06:27:17.937Z,16.03
2022-09-28T06:29:46.228Z,16.04
2022-09-28T06:32:14.520Z,16.07
2022-09-28T06:34:44.289Z,16.10
2022-09-28T06:37:11.863Z,16.10
2022-09-28T06:39:39.378Z,16.09
2022-09-28T06:42:07.176Z,16.11
2022-09-28T06:45:04.589Z,16.13
2022-09-28T06:48:00.077Z,16.16
2022-09-28T06:50:40.262Z,16.19
2022-09-28T06:53:29.432Z,16.22
2022-09-28T06:56:18.088Z,16.24
2022-09-28T06:58:45.824Z,16.29
2022-09-28T07:01:13.446Z,16.29
2022-09-28T07:03:56.733Z,16.25
2022-09-28T07:06:48.089Z,16.21
2022-09-28T07:09:38.171Z,16.17
2022-09-28T07:12:27.547Z,16.13
2022-09-28T07:15:04.984Z,16.08
2022-09-28T07:17:42.068Z,16.10
2022-09-28T07:20:19.088Z,16.09
2022-09-28T07:23:00.716Z,16.14
2022-09-28T07:25:55.292Z,16.15
2022-09-28T07:28:41.505Z,16.17
2022-09-28T07:31:35.629Z,16.19
2022-09-28T07:34:23.167Z,16.20
2022-09-28T07:37:14.654Z,16.22
2022-09-28T07:40:01.042Z,16.23
2022-09-28T07:42:31.532Z,16.24
2022-09-28T07:45:00.283Z,16.21
2022-09-28T07:47:34.624Z,16.22
2022-09-28T07:50:29.917Z,16.24
2022-09-28T07:53:28.540Z,16.32
2022-09-28T07:56:14.065Z,16.34
2022-09-28T07:59:00.380Z,16.39
2022-09-28T08:01:40.086Z,16.42
2022-09-28T08:04:10.416Z,16.44
2022-09-28T08:06:40.616Z,16.47
2022-09-28T08:09:10.845Z,16.54
2022-09-28T08:12:18.437Z,16.67
2022-09-28T08:15:10.453Z,16.77
2022-09-28T08:17:49.830Z,16.92
2022-09-28T08:20:39.088Z,17.04
2022-09-28T08:23:11.617Z,17.13
2022-09-28T08:25:52.617Z,17.20
2022-09-28T08:28:22.669Z,17.29
2022-09-28T08:30:54.364Z,17.37
2022-09-28T08:33:28.469Z,17.49
2022-09-28T08:36:14.525Z,17.61
2022-09-28T08:39:01.204Z,17.71
2022-09-28T08:42:00.153Z,17.82
2022-09-28T08:44:49.898Z,17.93
2022-09-28T08:48:31.598Z,18.05
2022-09-28T08:51:41.862Z,18.13
2022-09-28T08:54:54.925Z,18.21
2022-09-28T08:57:55.207Z,18.29
2022-09-28T09:00:52.590Z,18.41
2022-09-28T09:03:33.545Z,18.52
2022-09-28T09:06:41.490Z,18.65
2022-09-28T09:09:42.580Z,18.77
2022-09-28T09:15:33.030Z,18.96
2022-09-28T09:18:48.400Z,19.11
2022-09-28T09:21:46.729Z,19.17
2022-09-28T09:24:40.988Z,19.17
2022-09-28T09:27:48.711Z,19.14
2022-09-28T09:30:22.099Z,19.11
2022-09-28T09:33:04.805Z,19.10
2022-09-28T09:36:28.154Z,19.08
2022-09-28T09:39:32.989Z,19.03
2022-09-28T09:43:00.279Z,19.04
2022-09-28T09:46:28.979Z,19.11
2022-09-28T09:49:29.153Z,19.16
2022-09-28T09:52:17.750Z,19.21
2022-09-28T09:55:19.349Z,19.27
2022-09-28T09:58:30.498Z,19.31
2022-09-28T10:01:13.710Z,19.38
2022-09-28T10:04:00.955Z,19.44
2022-09-28T10:06:35.392Z,19.50
2022-09-28T10:09:20.677Z,19.59
2022-09-28T10:11:52.120Z,19.64
2022-09-28T10:14:24.120Z,19.68
2022-09-28T10:17:03.955Z,19.74
2022-09-28T10:20:04.873Z,19.79
2022-09-28T10:22:33.077Z,19.78
2022-09-28T10:25:09.891Z,19.78
2022-09-28T10:27:46.735Z,19.83
2022-09-28T10:30:23.307Z,19.87
2022-09-28T10:32:55.548Z,19.97
2022-09-28T10:35:30.983Z,20.06
2022-09-28T10:38:12.485Z,20.15
2022-09-28T10:40:47.464Z,20.25
2022-09-28T10:43:38.558Z,20.27
2022-09-28T10:46:23.535Z,20.25
2022-09-28T10:49:18.690Z,20.27
2022-09-28T10:51:57.012Z,20.32
2022-09-28T10:54:30.993Z,20.37
2022-09-28T10:57:01.150Z,20.40
2022-09-28T10:59:42.567Z,20.49
2022-09-28T11:02:36.619Z,20.55
2022-09-28T11:05:30.119Z,20.67
2022-09-28T11:08:06.595Z,20.81
2022-09-28T11:10:42.838Z,20.87
2022-09-28T11:13:14.595Z,20.90
2022-09-28T11:15:47.526Z,20.97
2022-09-28T11:18:32.460Z,21.08
2022-09-28T11:21:22.211Z,21.21
2022-09-28T11:24:20.057Z,21.34
2022-09-28T11:26:58.779Z,21.43
2022-09-28T11:29:46.905Z,21.52
2022-09-28T11:32:18.606Z,21.57
2022-09-28T11:35:07.028Z,21.58
2022-09-28T11:38:11.651Z,21.65
2022-09-28T11:41:30.186Z,21.70
2022-09-28T11:44:37.921Z,21.75
2022-09-28T11:47:39.582Z,21.89
2022-09-28T11:50:27.172Z,22.07
2022-09-28T11:53:00.517Z,22.24
2022-09-28T11:56:09.182Z,22.40
2022-09-28T11:58:49.180Z,22.59
2022-09-28T12:01:31.286Z,22.76
2022-09-28T12:04:48.826Z,22.96
2022-09-28T12:07:37.289Z,23.09
2022-09-28T12:10:36.061Z,23.24
2022-09-28T12:13:35.471Z,23.42
2022-09-28T12:16:53.442Z,23.64
2022-09-28T12:19:36.692Z,23.80
2022-09-28T12:22:25.337Z,23.95
2022-09-28T12:24:55.548Z,24.09
2022-09-28T12:27:38.665Z,24.24
2022-09-28T12:30:16.280Z,24.40
2022-09-28T12:33:16.256Z,24.57
2022-09-28T12:36:21.330Z,24.69
2022-09-28T12:39:19.163Z,24.75
2022-09-28T12:42:29.186Z,24.89
2022-09-28T12:45:08.941Z,25.00
2022-09-28T12:48:08.153Z,25.15
2022-09-28T12:51:09.810Z,25.23
2022-09-28T12:53:55.397Z,25.35
2022-09-28T12:56:44.453Z,25.57
2022-09-28T12:59:36.841Z,25.81
2022-09-28T13:02:33.665Z,25.97
2022-09-28T13:05:22.630Z,26.11
2022-09-28T13:08:08.682Z,26.38
2022-09-28T13:11:07.549Z,26.67
2022-09-28T13:14:06.341Z,26.86
2022-09-28T13:16:50.363Z,26.92
2022-09-28T13:19:53.706Z,27.16
2022-09-28T13:22:57.672Z,27.30
2022-09-28T13:25:31.209Z,27.34
2022-09-28T13:28:05.746Z,27.68
2022-09-28T13:30:36.614Z,27.91
2022-09-28T13:33:07.937Z,28.23
2022-09-28T13:35:35.531Z,28.49
2022-09-28T13:38:18.490Z,28.74
2022-09-28T13:41:18.684Z,28.91
2022-09-28T13:44:13.452Z,29.19
2022-09-28T13:47:20.541Z,29.45
2022-09-28T13:50:19.932Z,29.47
2022-09-28T13:53:02.146Z,29.42
2022-09-28T13:55:50.571Z,29.37
2022-09-28T13:58:36.488Z,29.26
2022-09-28T14:01:18.008Z,29.17
2022-09-28T14:04:20.319Z,28.99
2022-09-28T14:07:16.523Z,28.92
2022-09-28T14:09:48.527Z,28.66
2022-09-28T14:12:34.021Z,28.43
2022-09-28T14:15:03.057Z,28.08
2022-09-28T14:17:53.081Z,27.71
2022-09-28T14:20:25.387Z,27.32
2022-09-28T14:23:13.906Z,26.99
2022-09-28T14:25:59.824Z,26.62
2022-09-28T14:29:02.018Z,26.20
2022-09-28T14:31:30.927Z,25.86
2022-09-28T14:34:02.731Z,25.59
2022-09-28T14:37:06.612Z,25.27
2022-09-28T14:39:56.502Z,24.98
2022-09-28T14:42:26.129Z,24.66
2022-09-28T14:45:06.286Z,24.44
2022-09-28T14:48:12.428Z,24.22
2022-09-28T14:50:40.511Z,24.10
2022-09-28T14:53:19.616Z,24.00
2022-09-28T14:55:51.886Z,23.94
2022-09-28T14:58:27.736Z,23.81
2022-09-28T15:01:06.230Z,23.72
2022-09-28T15:03:38.338Z,23.63
2022-09-28T15:06:06.187Z,23.55
2022-09-28T15:08:38.995Z,23.43
2022-09-28T15:11:16.839Z,23.29
2022-09-28T15:13:44.388Z,23.14
2022-09-28T15:16:16.046Z,22.98
2022-09-28T15:19:01.618Z,22.87
2022-09-28T15:21:42.625Z,22.78
2022-09-28T15:24:32.524Z,22.71
2022-09-28T15:27:13.819Z,22.66
2022-09-28T15:29:41.472Z,22.58
2022-09-28T15:32:24.898Z,22.50
2022-09-28T15:34:52.988Z,22.42
2022-09-28T15:37:30.146Z,22.33
2022-09-28T15:40:00.230Z,22.25
2022-09-28T15:42:28.580Z,22.15
2022-09-28T15:45:10.277Z,22.06
2022-09-28T15:47:40.160Z,21.94
2022-09-28T15:50:26.741Z,21.82
2022-09-28T15:52:56.674Z,21.70
2022-09-28T15:55:34.632Z,21.61
2022-09-28T15:58:21.213Z,21.52
2022-09-28T16:01:20.677Z,21.41
2022-09-28T16:03:48.627Z,21.28
2022-09-28T16:06:16.476Z,21.20
2022-09-28T16:08:45.942Z,21.12
2022-09-28T16:11:31.467Z,21.03
2022-09-28T16:14:18.333Z,20.95
2022-09-28T16:16:52.273Z,20.81
2022-09-28T16:19:30.492Z,20.51
2022-09-28T16:22:02.187Z,20.26
2022-09-28T16:24:36.895Z,20.01
2022-09-28T16:27:26.273Z,19.93
2022-09-28T16:30:12.810Z,19.82
2022-09-28T16:32:58.548Z,19.71
2022-09-28T16:35:31.422Z,19.68
2022-09-28T16:38:14.784Z,19.67
2022-09-28T16:40:51.486Z,19.62
2022-09-28T16:43:29.309Z,19.67
2022-09-28T16:46:00.955Z,19.63
2022-09-28T16:48:32.250Z,19.54
2022-09-28T16:51:00.653Z,19.53
2022-09-28T16:53:46.822Z,19.47
2022-09-28T16:56:14.712Z,19.48
2022-09-28T16:58:42.510Z,19.40
2022-09-28T17:01:12.490Z,19.35
2022-09-28T17:03:46.697Z,19.23
2022-09-28T17:06:15.452Z,19.29
2022-09-28T17:08:43.445Z,19.31
2022-09-28T17:11:22.830Z,19.22
2022-09-28T17:13:51.936Z,19.14
2022-09-28T17:16:49.277Z,19.23
2022-09-28T17:19:25.609Z,19.34
2022-09-28T17:21:53.434Z,19.42
2022-09-28T17:24:21.417Z,19.51
2022-09-28T17:26:51.722Z,19.59
2022-09-28T17:29:19.839Z,19.66
2022-09-28T17:31:48.235Z,19.72
2022-09-28T17:34:16.730Z,19.75
2022-09-28T17:36:45.050Z,19.78
2022-09-28T17:39:15.130Z,19.81
2022-09-28T17:41:42.953Z,19.82
2022-09-28T17:44:10.855Z,19.82
2022-09-28T17:46:45.942Z,19.79
2022-09-28T17:49:14.273Z,19.79
2022-09-28T17:51:42.303Z,19.78
2022-09-28T17:54:10.336Z,19.83
2022-09-28T17:56:37.827Z,19.83
2022-09-28T17:59:10.175Z,19.85
2022-09-28T18:01:40.505Z,19.83
2022-09-28T18:04:23.085Z,19.82
2022-09-28T18:06:59.337Z,19.78
2022-09-28T18:09:27.093Z,19.77
2022-09-28T18:12:01.066Z,19.77
2022-09-28T18:14:30.144Z,19.80
2022-09-28T18:16:57.662Z,19.82
2022-09-28T18:19:31.179Z,19.85
2022-09-28T18:22:01.594Z,19.89
2022-09-28T18:24:29.526Z,19.94
2022-09-28T18:26:57.010Z,19.95
2022-09-28T18:29:24.969Z,19.96
2022-09-28T18:31:52.535Z,19.99
2022-09-28T18:34:20.164Z,20.02
2022-09-28T18:36:48.415Z,20.00
2022-09-28T18:39:15.936Z,19.99
2022-09-28T18:41:43.451Z,19.97
2022-09-28T18:44:11.272Z,19.95
2022-09-28T18:46:39.406Z,19.94
2022-09-28T18:49:08.395Z,19.90
2022-09-28T18:51:36.470Z,19.85
2022-09-28T18:54:07.717Z,19.81
2022-09-28T18:56:37.981Z,19.77
2022-09-28T18:59:11.888Z,19.77
2022-09-28T19:01:41.869Z,19.75
2022-09-28T19:04:16.065Z,19.77
2022-09-28T19:06:52.965Z,19.77
2022-09-28T19:09:24.719Z,19.78
2022-09-28T19:11:53.625Z,19.79
2022-09-28T19:14:23.595Z,19.80
2022-09-28T19:16:52.003Z,19.81
2022-09-28T19:19:23.555Z,19.79
2022-09-28T19:21:54.949Z,19.78
2022-09-28T19:24:26.524Z,19.80
2022-09-28T19:26:56.617Z,19.82
2022-09-28T19:29:24.452Z,19.83
2022-09-28T19:31:52.144Z,19.82
2022-09-28T19:34:20.098Z,19.83
2022-09-28T19:36:47.657Z,19.84
2022-09-28T19:39:15.826Z,19.84
2022-09-28T19:41:51.201Z,19.84
2022-09-28T19:44:25.369Z,19.84
2022-09-28T19:47:04.256Z,19.84
2022-09-28T19:49:36.821Z,19.85
2022-09-28T19:52:14.420Z,19.87
2022-09-28T19:54:57.543Z,19.89
2022-09-28T19:57:29.813Z,19.91
2022-09-28T20:00:05.679Z,19.92
2022-09-28T20:02:35.195Z,19.94
2022-09-28T20:05:03.131Z,19.94
2022-09-28T20:07:33.363Z,19.95
2022-09-28T20:10:01.131Z,19.94
2022-09-28T20:12:28.692Z,19.95
2022-09-28T20:14:56.438Z,19.95
2022-09-28T20:17:24.228Z,19.93
2022-09-28T20:19:51.914Z,19.91
2022-09-28T20:22:20.125Z,19.88
2022-09-28T20:24:47.981Z,19.87
2022-09-28T20:27:15.676Z,19.86
2022-09-28T20:29:43.287Z,19.86
2022-09-28T20:32:12.262Z,19.85
2022-09-28T20:34:39.813Z,19.83
2022-09-28T20:37:07.349Z,19.83
2022-09-28T20:39:35.079Z,19.80
2022-09-28T20:42:02.888Z,19.77
2022-09-28T20:44:31.280Z,19.74
2022-09-28T20:46:59.621Z,19.69
2022-09-28T20:49:28.190Z,19.61
2022-09-28T20:51:55.873Z,19.54
2022-09-28T20:54:23.612Z,19.47
2022-09-28T20:56:51.492Z,19.41
2022-09-28T20:59:20.351Z,19.34
2022-09-28T21:01:48.281Z,19.26
2022-09-28T21:04:15.928Z,19.18
2022-09-28T21:06:44.567Z,19.13
2022-09-28T21:09:12.606Z,19.08
2022-09-28T21:11:41.692Z,19.05
2022-09-28T21:14:10.315Z,19.02
2022-09-28T21:16:39.144Z,19.00
2022-09-28T21:19:07.029Z,18.98
2022-09-28T21:21:34.790Z,18.97
2022-09-28T21:24:02.887Z,18.96
2022-09-28T21:26:32.084Z,18.95
2022-09-28T21:29:05.528Z,18.96
2022-09-28T21:31:42.143Z,18.95
2022-09-28T21:34:20.171Z,18.94
2022-09-28T21:36:51.615Z,18.93
2022-09-28T21:39:20.262Z,18.91
2022-09-28T21:41:48.299Z,18.89
2022-09-28T21:44:16.168Z,18.89
2022-09-28T21:46:43.691Z,18.87
2022-09-28T21:49:12.612Z,18.87
2022-09-28T21:51:41.249Z,18.91
2022-09-28T21:54:08.911Z,18.96
2022-09-28T21:56:36.396Z,18.98
2022-09-28T21:59:04.260Z,19.02
2022-09-28T22:01:32.101Z,19.05
2022-09-28T22:03:59.769Z,19.06
2022-09-28T22:06:28.282Z,19.09
2022-09-28T22:08:56.853Z,19.10
2022-09-28T22:11:28.215Z,19.13
2022-09-28T22:13:59.335Z,19.16
2022-09-28T22:16:30.400Z,19.23
2022-09-28T22:18:59.526Z,19.28
2022-09-28T22:21:35.075Z,19.33
2022-09-28T22:24:06.403Z,19.35
2022-09-28T22:26:36.747Z,19.39
2022-09-28T22:29:09.050Z,19.40
2022-09-28T22:31:39.992Z,19.41
2022-09-28T22:34:09.186Z,19.41
2022-09-28T22:36:36.814Z,19.45
2022-09-28T22:39:04.909Z,19.46
2022-09-28T22:41:33.167Z,19.49
2022-09-28T22:44:01.274Z,19.55
2022-09-28T22:46:32.136Z,19.56
2022-09-28T22:49:00.746Z,19.58
2022-09-28T22:51:30.118Z,19.60
2022-09-28T22:53:57.809Z,19.60
2022-09-28T22:56:26.319Z,19.59
2022-09-28T22:58:54.560Z,19.61
2022-09-28T23:01:26.330Z,19.63
2022-09-28T23:03:56.364Z,19.63
2022-09-28T23:06:27.834Z,19.63
2022-09-28T23:08:55.637Z,19.66
2022-09-28T23:11:23.419Z,19.69
2022-09-28T23:13:53.481Z,19.72
2022-09-28T23:16:23.621Z,19.69
2022-09-28T23:18:51.662Z,19.66
2022-09-28T23:21:22.608Z,19.65
2022-09-28T23:24:01.580Z,19.66
2022-09-28T23:26:34.354Z,19.68
2022-09-28T23:29:02.153Z,19.69
2022-09-28T23:31:33.750Z,19.66
2022-09-28T23:34:05.703Z,19.66
2022-09-28T23:36:34.491Z,19.67
2022-09-28T23:39:03.245Z,19.71
2022-09-28T23:41:30.879Z,19.75
2022-09-28T23:43:58.678Z,19.74
2022-09-28T23:46:26.262Z,19.75
2022-09-28T23:48:53.939Z,19.75
2022-09-28T23:51:21.915Z,19.77
2022-09-28T23:53:49.632Z,19.80
2022-09-28T23:56:17.191Z,19.82
2022-09-28T23:58:45.187Z,19.84
